Time;durP1;ratioP1;P1;durP2;ratioP2;P2;SDS_P1;SDS_P2;PMS_P1;PMS_P2;Temp;Humidity;BMP_temperature;BMP_pressure;BME280_temperature;BME280_humidity;BME280_pressure;Samples;Min_cycle;Max_cycle;Signal;HPM_P1;HPM_P2
2021/09/16 00:01:20;;;;;;;11.05;6.35;;;12.90;50.50;;;;;;5034360;28;20021;-64
2021/09/16 00:03:46;;;;;;;9.43;5.13;;;12.90;50.60;;;;;;5034285;28;20484;-64
2021/09/16 00:06:12;;;;;;;9.27;4.65;;;12.80;50.60;;;;;;5034374;28;20380;-65
2021/09/16 00:08:38;;;;;;;9.30;4.95;;;12.70;50.50;;;;;;5034237;28;20065;-65
2021/09/16 00:11:03;;;;;;;10.48;5.65;;;12.60;50.70;;;;;;5034751;28;20017;-64
2021/09/16 00:13:29;;;;;;;9.48;5.43;;;12.60;50.90;;;;;;5034183;28;20033;-65
2021/09/16 00:15:55;;;;;;;10.43;5.85;;;12.50;50.90;;;;;;5034046;28;20480;-64
2021/09/16 00:18:22;;;;;;;11.18;5.97;;;12.50;51.10;;;;;;5034173;28;20022;-65
2021/09/16 00:20:48;;;;;;;10.38;5.78;;;12.40;51.20;;;;;;5034365;28;20432;-65
2021/09/16 00:23:14;;;;;;;10.73;6.20;;;12.40;51.40;;;;;;5034224;28;20397;-64
2021/09/16 00:25:39;;;;;;;11.80;6.25;;;12.40;51.40;;;;;;5034095;28;20037;-65
2021/09/16 00:28:05;;;;;;;12.73;6.68;;;12.40;51.40;;;;;;5033879;28;20108;-65
2021/09/16 00:30:31;;;;;;;14.35;6.80;;;12.40;51.60;;;;;;5033882;28;20104;-66
2021/09/16 00:32:57;;;;;;;13.27;6.78;;;12.40;51.70;;;;;;5033801;28;20034;-65
2021/09/16 00:35:22;;;;;;;15.15;7.90;;;12.30;51.70;;;;;;5033690;28;20026;-65
2021/09/16 00:37:48;;;;;;;14.25;7.30;;;12.40;52.20;;;;;;5033647;28;20032;-65
2021/09/16 00:40:14;;;;;;;13.88;7.00;;;12.30;52.10;;;;;;5033568;28;20017;-65
2021/09/16 00:42:40;;;;;;;12.20;6.80;;;12.30;52.10;;;;;;5033657;28;20029;-64
2021/09/16 00:45:06;;;;;;;10.07;6.18;;;12.20;52.10;;;;;;5033572;28;20041;-66
2021/09/16 00:47:32;;;;;;;11.82;6.13;;;12.20;52.10;;;;;;5032094;28;20030;-65
2021/09/16 00:49:58;;;;;;;9.95;5.70;;;12.20;52.10;;;;;;5032933;28;20029;-64
2021/09/16 00:52:25;;;;;;;12.50;6.55;;;12.30;52.30;;;;;;5033293;28;20058;-66
2021/09/16 00:54:53;;;;;;;10.32;6.15;;;12.20;52.40;;;;;;5033451;28;20025;-65
2021/09/16 00:57:21;;;;;;;10.35;6.20;;;12.20;52.40;;;;;;5033350;28;20025;-66
2021/09/16 00:59:48;;;;;;;13.68;6.07;;;12.20;52.30;;;;;;5033144;28;20059;-65
2021/09/16 01:02:14;;;;;;;10.82;5.82;;;12.20;52.50;;;;;;5033345;28;20376;-65
2021/09/16 01:04:40;;;;;;;11.85;5.95;;;12.10;52.50;;;;;;5033254;28;20030;-66
2021/09/16 01:07:08;;;;;;;11.00;5.85;;;12.10;52.60;;;;;;5033275;28;20021;-65
2021/09/16 01:09:36;;;;;;;9.60;5.68;;;12.10;52.70;;;;;;5033232;28;20032;-65
2021/09/16 01:12:02;;;;;;;9.40;5.50;;;12.10;52.70;;;;;;5033024;28;20014;-65
2021/09/16 01:14:29;;;;;;;9.43;5.50;;;12.00;52.60;;;;;;5032950;28;20047;-66
2021/09/16 01:16:55;;;;;;;9.20;5.57;;;12.00;52.70;;;;;;5033145;28;20086;-64
2021/09/16 01:19:21;;;;;;;11.57;6.07;;;12.00;52.80;;;;;;5032967;28;20032;-64
2021/09/16 01:21:47;;;;;;;10.82;6.03;;;12.00;53.10;;;;;;5032768;28;20025;-65
2021/09/16 01:24:13;;;;;;;9.82;5.32;;;12.00;53.10;;;;;;5032785;28;20026;-64
2021/09/16 01:26:41;;;;;;;20.92;6.35;;;12.00;53.10;;;;;;5032746;28;20171;-65
2021/09/16 01:29:07;;;;;;;11.68;5.80;;;12.00;53.30;;;;;;5032750;28;20477;-68
2021/09/16 01:31:37;;;;;;;10.07;5.05;;;12.00;53.40;;;;;;5032730;28;20484;-66
2021/09/16 01:34:05;;;;;;;10.63;5.45;;;11.90;53.30;;;;;;5032648;28;20032;-64
2021/09/16 01:36:32;;;;;;;10.27;6.00;;;11.90;53.30;;;;;;5032501;28;20032;-64
2021/09/16 01:38:58;;;;;;;8.32;4.85;;;11.90;53.30;;;;;;5032636;28;20029;-65
2021/09/16 01:41:24;;;;;;;9.23;5.43;;;11.80;53.30;;;;;;5032414;28;20029;-65
2021/09/16 01:43:49;;;;;;;10.50;5.88;;;11.80;53.50;;;;;;5032412;28;20025;-64
2021/09/16 01:46:15;;;;;;;12.05;6.80;;;11.80;53.70;;;;;;5032608;28;20060;-64
2021/09/16 01:48:41;;;;;;;10.27;6.25;;;11.80;54.10;;;;;;5032424;28;20526;-65
2021/09/16 01:51:06;;;;;;;11.70;6.93;;;11.70;54.10;;;;;;5032254;28;20073;-65
2021/09/16 01:53:32;;;;;;;12.13;6.93;;;11.60;54.50;;;;;;5032529;28;20033;-65
2021/09/16 01:55:57;;;;;;;12.82;7.80;;;11.50;54.80;;;;;;5032305;28;20036;-65
2021/09/16 01:58:23;;;;;;;15.13;8.75;;;11.50;55.80;;;;;;5032247;28;20052;-65
2021/09/16 02:00:49;;;;;;;14.90;8.30;;;11.50;56.50;;;;;;5031971;28;20388;-65
2021/09/16 02:03:14;;;;;;;13.25;7.90;;;11.40;56.50;;;;;;5032163;28;20108;-66
2021/09/16 02:05:40;;;;;;;12.60;7.72;;;11.40;56.60;;;;;;5031967;28;20108;-65
2021/09/16 02:08:05;;;;;;;11.27;6.60;;;11.40;56.40;;;;;;5032066;28;20468;-65
2021/09/16 02:10:31;;;;;;;11.25;6.50;;;11.40;56.30;;;;;;5032072;28;20035;-65
2021/09/16 02:12:57;;;;;;;11.68;6.78;;;11.40;56.20;;;;;;5032040;28;20022;-65
2021/09/16 02:15:23;;;;;;;11.77;7.05;;;11.40;56.00;;;;;;5031917;28;20495;-65
2021/09/16 02:17:48;;;;;;;13.95;8.45;;;11.50;56.20;;;;;;5031905;28;20040;-66
2021/09/16 02:20:14;;;;;;;14.48;8.45;;;11.50;56.80;;;;;;5031876;28;20024;-64
2021/09/16 02:22:40;;;;;;;14.70;8.68;;;11.50;56.80;;;;;;5031917;28;20060;-65
2021/09/16 02:25:06;;;;;;;14.18;7.90;;;11.50;56.80;;;;;;5031519;28;20116;-65
2021/09/16 02:27:31;;;;;;;12.38;7.88;;;11.40;56.50;;;;;;5031817;28;20163;-65
2021/09/16 02:29:57;;;;;;;13.00;7.50;;;11.40;56.80;;;;;;5030647;28;20104;-65
2021/09/16 02:32:22;;;;;;;12.52;7.47;;;11.30;56.70;;;;;;5032110;28;20531;-65
2021/09/16 02:34:48;;;;;;;15.82;7.72;;;11.30;56.70;;;;;;5031601;28;20156;-65
2021/09/16 02:37:14;;;;;;;18.58;9.38;;;11.30;56.80;;;;;;5031790;28;20075;-64
2021/09/16 02:39:40;;;;;;;17.25;9.90;;;11.30;57.50;;;;;;5031634;28;20032;-65
2021/09/16 02:42:06;;;;;;;16.83;9.98;;;11.30;57.50;;;;;;5032104;28;20417;-65
2021/09/16 02:44:32;;;;;;;15.75;9.00;;;11.20;57.70;;;;;;5031546;28;20147;-65
2021/09/16 02:46:57;;;;;;;13.65;7.78;;;11.10;57.40;;;;;;5030360;28;20053;-65
2021/09/16 02:49:23;;;;;;;15.25;7.85;;;11.10;57.40;;;;;;5031623;28;20388;-65
2021/09/16 02:51:49;;;;;;;12.20;6.60;;;11.10;57.40;;;;;;5031349;28;20183;-65
2021/09/16 02:54:14;;;;;;;10.15;5.95;;;11.00;57.40;;;;;;5031633;28;20108;-65
2021/09/16 02:56:40;;;;;;;11.63;6.15;;;10.90;57.30;;;;;;5031348;28;20108;-65
2021/09/16 02:59:06;;;;;;;13.10;6.88;;;10.90;57.30;;;;;;5031565;28;20022;-64
2021/09/16 03:01:32;;;;;;;11.63;6.45;;;10.90;57.60;;;;;;5031528;28;20021;-65
2021/09/16 03:03:58;;;;;;;10.25;6.25;;;10.90;57.60;;;;;;5030279;28;20472;-66
2021/09/16 03:06:23;;;;;;;11.50;6.43;;;10.90;57.60;;;;;;5031321;28;20030;-66
2021/09/16 03:08:49;;;;;;;10.80;6.22;;;10.90;57.60;;;;;;5031368;28;20061;-65
2021/09/16 03:11:15;;;;;;;9.70;5.55;;;10.90;57.50;;;;;;5032191;28;20053;-65
2021/09/16 03:13:41;;;;;;;11.43;6.00;;;10.90;57.60;;;;;;5035562;28;20521;-65
2021/09/16 03:16:07;;;;;;;10.63;5.18;;;11.00;57.50;;;;;;5035408;28;20101;-65
2021/09/16 03:18:33;;;;;;;9.45;5.65;;;11.10;57.40;;;;;;5035204;28;20472;-65
2021/09/16 03:20:59;;;;;;;9.70;5.50;;;11.20;57.40;;;;;;5035184;28;20052;-66
2021/09/16 03:23:24;;;;;;;10.68;5.80;;;11.30;57.30;;;;;;5035059;28;20017;-65
2021/09/16 03:25:50;;;;;;;10.52;5.50;;;11.40;57.30;;;;;;5035032;28;20087;-64
2021/09/16 03:28:16;;;;;;;8.75;4.95;;;11.50;57.20;;;;;;5034978;28;20038;-65
2021/09/16 03:30:41;;;;;;;8.65;5.10;;;11.50;57.10;;;;;;5034876;28;20112;-65
2021/09/16 03:33:07;;;;;;;7.80;4.43;;;11.60;57.00;;;;;;5034620;28;20026;-64
2021/09/16 03:35:32;;;;;;;8.60;5.00;;;11.70;57.00;;;;;;5034832;28;20033;-66
2021/09/16 03:37:58;;;;;;;7.55;4.50;;;11.70;56.90;;;;;;5034687;28;20018;-65
2021/09/16 03:40:24;;;;;;;10.25;5.50;;;11.70;56.80;;;;;;5034808;28;20384;-65
2021/09/16 03:42:50;;;;;;;11.25;6.90;;;11.80;56.80;;;;;;5034833;28;20435;-65
2021/09/16 03:45:17;;;;;;;11.52;7.22;;;11.90;57.00;;;;;;5034673;28;20036;-66
2021/09/16 03:47:43;;;;;;;10.25;6.38;;;12.00;57.00;;;;;;5034537;28;20416;-66
2021/09/16 03:50:09;;;;;;;10.50;5.80;;;12.00;56.80;;;;;;5034387;28;20040;-65
2021/09/16 03:52:35;;;;;;;9.20;5.65;;;12.10;56.70;;;;;;5034271;28;20128;-65
2021/09/16 03:55:01;;;;;;;9.82;5.90;;;12.20;56.60;;;;;;5034347;28;20164;-64
2021/09/16 03:57:26;;;;;;;9.48;5.22;;;12.30;56.70;;;;;;5034711;28;20037;-65
2021/09/16 03:59:52;;;;;;;10.25;6.10;;;12.30;56.60;;;;;;5034443;28;20437;-66
2021/09/16 04:02:17;;;;;;;10.57;6.03;;;12.40;56.70;;;;;;5034280;28;20029;-66
2021/09/16 04:04:43;;;;;;;9.73;5.93;;;12.50;56.80;;;;;;5034156;28;20423;-65
2021/09/16 04:07:09;;;;;;;9.98;5.93;;;12.50;56.60;;;;;;5034202;28;20030;-66
2021/09/16 04:09:34;;;;;;;11.48;6.63;;;12.50;56.60;;;;;;5034155;28;20440;-67
2021/09/16 04:12:00;;;;;;;10.10;6.05;;;12.60;56.70;;;;;;5034023;28;20037;-67
2021/09/16 04:14:26;;;;;;;11.18;6.53;;;12.60;56.70;;;;;;5034143;28;20021;-66
2021/09/16 04:16:52;;;;;;;11.65;7.00;;;12.60;56.60;;;;;;5034074;28;20029;-67
2021/09/16 04:19:18;;;;;;;11.13;6.50;;;12.70;56.70;;;;;;5034082;28;20105;-65
2021/09/16 04:21:43;;;;;;;10.73;6.53;;;12.70;56.70;;;;;;5033927;28;20022;-68
2021/09/16 04:24:13;;;;;;;10.55;6.28;;;12.80;56.70;;;;;;5033730;28;20490;-66
2021/09/16 04:26:40;;;;;;;12.30;6.60;;;12.80;56.70;;;;;;5034165;28;20021;-66
2021/09/16 04:29:06;;;;;;;12.95;7.45;;;12.90;56.70;;;;;;5033964;28;20533;-65
2021/09/16 04:31:31;;;;;;;11.98;7.18;;;12.90;56.70;;;;;;5033940;28;20116;-66
2021/09/16 04:33:57;;;;;;;11.50;6.85;;;12.90;56.90;;;;;;5033808;28;20151;-66
2021/09/16 04:36:23;;;;;;;11.48;6.00;;;12.90;56.90;;;;;;5033470;28;20033;-66
2021/09/16 04:38:49;;;;;;;12.57;7.45;;;13.00;56.80;;;;;;5033872;28;20483;-66
2021/09/16 04:41:14;;;;;;;28.40;16.50;;;13.00;57.00;;;;;;5033614;28;20025;-66
2021/09/16 04:43:41;;;;;;;30.13;18.23;;;13.10;57.10;;;;;;5033219;28;20100;-65
2021/09/16 04:46:06;;;;;;;27.10;16.27;;;13.20;57.10;;;;;;5033222;28;20223;-67
2021/09/16 04:48:32;;;;;;;26.30;16.35;;;13.20;56.90;;;;;;5033569;28;20650;-67
2021/09/16 04:50:58;;;;;;;23.27;14.65;;;13.30;57.60;;;;;;5033315;28;20438;-67
2021/09/16 04:53:23;;;;;;;20.40;13.13;;;13.20;57.10;;;;;;5033382;28;20388;-68
2021/09/16 04:55:49;;;;;;;19.83;12.63;;;13.30;57.50;;;;;;5033309;28;20029;-66
2021/09/16 04:58:14;;;;;;;21.00;12.52;;;13.40;57.70;;;;;;5033228;28;20079;-66
2021/09/16 05:00:40;;;;;;;17.80;11.20;;;13.40;57.70;;;;;;5033195;28;20044;-67
2021/09/16 05:03:06;;;;;;;16.02;9.85;;;13.50;58.00;;;;;;5032948;28;20018;-65
2021/09/16 05:05:32;;;;;;;17.02;10.15;;;13.50;58.00;;;;;;5033158;28;20427;-66
2021/09/16 05:07:58;;;;;;;16.90;10.80;;;13.60;58.00;;;;;;5033042;28;20392;-67
2021/09/16 05:10:23;;;;;;;18.63;10.55;;;13.70;58.10;;;;;;5032971;28;20057;-68
2021/09/16 05:12:49;;;;;;;17.48;10.35;;;13.70;58.00;;;;;;5032842;28;20535;-66
2021/09/16 05:15:15;;;;;;;17.15;10.65;;;13.70;58.00;;;;;;5032776;28;20111;-67
2021/09/16 05:17:41;;;;;;;17.63;10.18;;;13.70;58.00;;;;;;5032686;28;20354;-67
2021/09/16 05:20:07;;;;;;;18.02;11.07;;;13.70;58.10;;;;;;5033155;28;20025;-66
2021/09/16 05:22:32;;;;;;;16.80;10.02;;;13.60;58.40;;;;;;5032572;28;20030;-67
2021/09/16 05:24:58;;;;;;;14.70;9.27;;;13.60;58.40;;;;;;5032534;28;20029;-67
2021/09/16 05:27:23;;;;;;;14.98;9.18;;;13.60;58.30;;;;;;5032925;28;20034;-66
2021/09/16 05:29:49;;;;;;;14.02;8.68;;;13.60;58.40;;;;;;5032679;28;20092;-65
2021/09/16 05:32:15;;;;;;;12.88;7.80;;;13.70;58.60;;;;;;5032391;28;20059;-66
2021/09/16 05:34:40;;;;;;;14.18;8.18;;;13.70;58.60;;;;;;5031935;28;20021;-66
2021/09/16 05:37:06;;;;;;;14.45;7.10;;;13.70;58.80;;;;;;5032573;28;20076;-66
2021/09/16 05:39:32;;;;;;;13.20;7.65;;;13.70;58.70;;;;;;5032149;28;20380;-66
2021/09/16 05:41:57;;;;;;;12.85;7.20;;;13.80;58.80;;;;;;5032107;28;20053;-67
2021/09/16 05:44:23;;;;;;;13.02;7.15;;;13.90;58.90;;;;;;5032184;28;20511;-65
2021/09/16 05:46:49;;;;;;;10.70;6.50;;;13.90;58.70;;;;;;5032325;28;20438;-67
2021/09/16 05:49:14;;;;;;;11.60;7.43;;;14.00;58.60;;;;;;5031999;28;20481;-66
2021/09/16 05:51:40;;;;;;;12.52;7.47;;;14.10;58.90;;;;;;5032037;28;20088;-68
2021/09/16 05:54:05;;;;;;;12.27;7.50;;;14.20;58.80;;;;;;5032079;28;20048;-68
2021/09/16 05:56:31;;;;;;;12.32;7.30;;;14.30;58.90;;;;;;5031844;28;20037;-66
2021/09/16 05:58:57;;;;;;;11.98;7.13;;;14.50;58.90;;;;;;5031955;28;20055;-67
2021/09/16 06:01:22;;;;;;;11.15;6.35;;;14.60;59.00;;;;;;5032264;28;20025;-67
2021/09/16 06:03:48;;;;;;;12.30;7.15;;;14.70;58.80;;;;;;5032109;28;20064;-67
2021/09/16 06:06:14;;;;;;;11.15;6.65;;;14.80;59.50;;;;;;5032075;28;20344;-66
2021/09/16 06:08:39;;;;;;;10.00;5.80;;;15.00;58.90;;;;;;5032189;28;20116;-68
2021/09/16 06:11:05;;;;;;;11.75;5.82;;;15.00;59.40;;;;;;5031862;28;20033;-67
2021/09/16 06:13:31;;;;;;;9.75;6.00;;;15.20;58.90;;;;;;5031714;28;20025;-67
2021/09/16 06:15:56;;;;;;;9.35;5.50;;;15.20;58.70;;;;;;5031720;28;20025;-66
2021/09/16 06:18:22;;;;;;;10.02;5.53;;;15.40;58.60;;;;;;5031804;28;20172;-67
2021/09/16 06:20:49;;;;;;;9.02;5.53;;;15.50;58.40;;;;;;5031545;28;20047;-66
2021/09/16 06:23:16;;;;;;;8.55;4.82;;;15.60;58.30;;;;;;5031673;28;20187;-67
2021/09/16 06:25:41;;;;;;;9.32;4.97;;;15.70;58.20;;;;;;5031732;28;20444;-66
2021/09/16 06:28:07;;;;;;;10.10;6.10;;;15.80;58.30;;;;;;5031755;28;20100;-68
2021/09/16 06:30:33;;;;;;;9.07;6.38;;;15.90;58.40;;;;;;5031727;28;20053;-67
2021/09/16 06:32:58;;;;;;;9.80;5.68;;;16.00;58.60;;;;;;5031634;28;20021;-67
2021/09/16 06:35:24;;;;;;;9.93;5.88;;;16.00;58.50;;;;;;5031518;28;20029;-67
2021/09/16 06:37:50;;;;;;;11.98;6.90;;;16.10;58.40;;;;;;5031670;28;20022;-68
2021/09/16 06:40:16;;;;;;;11.07;6.00;;;16.20;58.50;;;;;;5031561;28;20049;-66
2021/09/16 06:42:41;;;;;;;11.07;7.13;;;16.30;58.40;;;;;;5031344;28;20060;-68
2021/09/16 06:45:08;;;;;;;14.40;8.00;;;16.40;58.60;;;;;;5031502;28;20113;-67
2021/09/16 06:47:34;;;;;;;11.73;7.30;;;16.50;58.70;;;;;;5034231;28;20055;-65
2021/09/16 06:50:00;;;;;;;11.90;7.20;;;16.60;58.30;;;;;;5035899;28;20479;-67
2021/09/16 06:52:25;;;;;;;10.70;6.53;;;16.70;57.90;;;;;;5035635;28;20105;-66
2021/09/16 06:54:52;;;;;;;9.57;6.25;;;16.80;57.60;;;;;;5035607;28;20061;-67
2021/09/16 06:57:18;;;;;;;10.85;6.40;;;17.00;57.40;;;;;;5035366;28;20029;-69
2021/09/16 06:59:44;;;;;;;10.35;7.03;;;17.10;57.20;;;;;;5035155;28;20024;-68
2021/09/16 07:02:11;;;;;;;9.25;6.07;;;17.20;56.70;;;;;;5035402;28;20029;-67
2021/09/16 07:04:37;;;;;;;10.52;6.20;;;17.40;56.70;;;;;;5035435;28;20050;-67
2021/09/16 07:07:06;;;;;;;9.43;5.80;;;17.50;56.30;;;;;;5035398;28;20036;-67
2021/09/16 07:09:35;;;;;;;8.98;5.13;;;17.60;56.20;;;;;;5035040;28;20412;-67
2021/09/16 07:12:01;;;;;;;11.45;6.72;;;17.80;56.30;;;;;;5034060;28;20093;-69
2021/09/16 07:14:29;;;;;;;10.40;6.50;;;18.00;56.50;;;;;;5035157;28;20049;-66
2021/09/16 07:16:59;;;;;;;10.63;6.38;;;18.30;57.20;;;;;;5035345;28;20037;-66
2021/09/16 07:19:25;;;;;;;10.32;7.00;;;18.50;57.40;;;;;;5035142;28;20075;-68
2021/09/16 07:21:52;;;;;;;9.70;6.10;;;18.80;57.60;;;;;;5035512;28;20055;-68
2021/09/16 07:24:18;;;;;;;8.95;5.90;;;19.20;57.70;;;;;;5035216;28;20025;-67
2021/09/16 07:26:50;;;;;;;9.88;6.05;;;19.50;57.60;;;;;;5035369;28;20029;-67
2021/09/16 07:29:18;;;;;;;9.13;5.68;;;19.80;57.40;;;;;;5034927;28;20068;-68
2021/09/16 07:31:44;;;;;;;9.85;6.32;;;20.10;57.10;;;;;;5034958;28;20046;-66
2021/09/16 07:34:10;;;;;;;11.48;5.93;;;20.40;56.50;;;;;;5035039;28;20030;-67
2021/09/16 07:36:36;;;;;;;8.95;5.75;;;20.70;56.30;;;;;;5034690;28;20101;-67
2021/09/16 07:39:02;;;;;;;9.70;5.80;;;20.90;56.20;;;;;;5034845;28;20489;-67
2021/09/16 07:41:28;;;;;;;9.45;6.10;;;21.20;56.00;;;;;;5034656;28;20087;-68
2021/09/16 07:43:53;;;;;;;10.05;6.10;;;21.50;55.80;;;;;;5034858;28;20112;-69
2021/09/16 07:46:19;;;;;;;8.73;5.68;;;21.80;55.40;;;;;;5034498;28;20036;-67
2021/09/16 07:48:45;;;;;;;9.18;6.00;;;22.20;55.20;;;;;;5034283;28;20030;-67
2021/09/16 07:51:10;;;;;;;9.32;5.60;;;22.50;54.70;;;;;;5034005;28;20052;-69
2021/09/16 07:53:36;;;;;;;8.57;5.53;;;23.00;54.30;;;;;;5034392;28;20377;-69
2021/09/16 07:56:02;;;;;;;9.00;5.60;;;23.30;53.50;;;;;;5033085;28;20491;-69
2021/09/16 07:58:27;;;;;;;8.27;5.13;;;23.70;52.80;;;;;;5033763;28;20018;-67
2021/09/16 08:00:53;;;;;;;7.68;4.85;;;24.00;52.30;;;;;;5034268;28;20035;-68
2021/09/16 08:03:19;;;;;;;8.55;4.70;;;24.40;51.50;;;;;;5034292;28;20022;-68
2021/09/16 08:05:45;;;;;;;7.95;4.68;;;24.80;50.40;;;;;;5034132;28;20022;-69
2021/09/16 08:08:11;;;;;;;7.00;4.25;;;25.00;49.10;;;;;;5033944;28;20047;-69
2021/09/16 08:10:37;;;;;;;6.38;3.75;;;25.20;48.50;;;;;;5034125;28;20472;-67
2021/09/16 08:13:03;;;;;;;7.10;4.10;;;25.50;47.90;;;;;;5033742;28;20108;-67
2021/09/16 08:15:29;;;;;;;7.18;4.18;;;25.80;46.80;;;;;;5033873;28;20041;-68
2021/09/16 08:17:54;;;;;;;6.55;4.03;;;25.90;46.40;;;;;;5033901;28;20408;-69
2021/09/16 08:20:21;;;;;;;8.32;4.30;;;26.20;45.70;;;;;;5034072;28;20036;-70
2021/09/16 08:22:46;;;;;;;8.43;3.92;;;26.40;44.90;;;;;;5034032;28;20025;-67
2021/09/16 08:25:14;;;;;;;6.32;3.42;;;26.50;44.70;;;;;;5034179;28;20096;-68
2021/09/16 08:27:41;;;;;;;6.22;3.30;;;26.70;44.40;;;;;;5033696;28;20017;-68
2021/09/16 08:30:09;;;;;;;5.50;3.17;;;26.90;44.20;;;;;;5033763;28;20021;-68
2021/09/16 08:32:35;;;;;;;5.97;3.10;;;27.20;43.80;;;;;;5033611;28;20013;-69
2021/09/16 08:35:01;;;;;;;5.85;2.83;;;27.50;43.30;;;;;;5033556;28;20026;-67
2021/09/16 08:37:27;;;;;;;4.88;2.60;;;27.80;42.40;;;;;;5033883;28;20025;-68
2021/09/16 08:39:52;;;;;;;4.68;2.30;;;27.90;41.00;;;;;;5033788;28;20025;-68
2021/09/16 08:42:25;;;;;;;4.07;2.13;;;28.20;40.50;;;;;;5033467;28;20029;-68
2021/09/16 08:44:55;;;;;;;4.53;2.40;;;28.50;40.10;;;;;;5033430;28;20018;-69
2021/09/16 08:47:24;;;;;;;4.43;2.10;;;28.70;39.60;;;;;;5033428;28;20025;-69
2021/09/16 08:49:51;;;;;;;4.63;1.80;;;28.80;39.00;;;;;;5033313;28;20383;-66
2021/09/16 08:52:17;;;;;;;4.20;2.00;;;29.10;39.00;;;;;;5033075;28;20076;-68
2021/09/16 08:54:43;;;;;;;4.60;1.90;;;29.20;38.40;;;;;;5033190;28;20465;-68
2021/09/16 08:57:15;;;;;;;4.03;1.95;;;29.50;37.90;;;;;;5033413;28;20021;-68
2021/09/16 08:59:45;;;;;;;4.18;1.90;;;29.70;37.30;;;;;;5033258;28;20111;-70
2021/09/16 09:02:12;;;;;;;3.35;1.60;;;29.90;37.00;;;;;;5033101;28;20491;-69
2021/09/16 09:04:38;;;;;;;4.00;1.50;;;30.10;36.60;;;;;;5033038;28;20032;-68
2021/09/16 09:07:06;;;;;;;3.55;1.35;;;30.30;36.00;;;;;;5032988;28;20021;-67
2021/09/16 09:09:32;;;;;;;2.90;1.40;;;30.60;35.50;;;;;;5032118;28;20029;-69
2021/09/16 09:12:00;;;;;;;2.47;1.30;;;30.70;35.20;;;;;;5033015;28;20120;-68
2021/09/16 09:14:29;;;;;;;4.28;1.42;;;31.00;34.90;;;;;;5032860;28;20040;-70
2021/09/16 09:16:55;;;;;;;2.28;1.00;;;31.10;34.30;;;;;;5032849;28;20026;-66
2021/09/16 09:19:23;;;;;;;3.45;1.02;;;31.40;34.30;;;;;;5033024;28;20427;-69
2021/09/16 09:21:49;;;;;;;3.67;1.30;;;31.70;34.10;;;;;;5032851;28;20022;-69
2021/09/16 09:24:32;;;;;;;3.35;1.00;;;31.90;33.60;;;;;;5032684;28;20032;-67
2021/09/16 09:26:58;;;;;;;4.65;1.30;;;32.20;32.20;;;;;;5032726;28;20022;-69
2021/09/16 09:29:24;;;;;;;2.75;1.10;;;32.50;33.20;;;;;;5032538;28;20108;-67
2021/09/16 09:32:07;;;;;;;2.63;1.13;;;32.70;32.90;;;;;;5032648;28;20572;-67
2021/09/16 09:34:36;;;;;;;2.33;1.10;;;33.00;29.60;;;;;;5032649;28;20496;-68
2021/09/16 09:37:13;;;;;;;1.75;1.00;;;33.10;32.30;;;;;;5032591;28;20034;-69
2021/09/16 09:39:40;;;;;;;2.17;1.17;;;33.40;31.80;;;;;;5032338;28;20385;-67
2021/09/16 09:42:27;;;;;;;3.20;1.10;;;33.60;31.90;;;;;;5032166;28;20052;-69
2021/09/16 09:45:14;;;;;;;2.67;1.20;;;33.90;30.00;;;;;;5032408;28;20020;-67
2021/09/16 09:47:46;;;;;;;2.20;0.90;;;34.10;31.40;;;;;;5032037;28;20069;-67
2021/09/16 09:50:20;;;;;;;4.30;1.80;;;34.40;30.80;;;;;;5032410;28;20116;-68
2021/09/16 09:52:46;;;;;;;4.68;2.00;;;34.40;30.00;;;;;;5032016;28;20045;-67
2021/09/16 09:55:17;;;;;;;3.70;1.58;;;34.40;30.00;;;;;;5032074;28;20025;-67
2021/09/16 09:57:43;;;;;;;3.10;1.55;;;34.30;29.60;;;;;;5032125;28;20529;-67
2021/09/16 10:00:14;;;;;;;4.05;1.50;;;34.20;29.90;;;;;;5031990;28;20042;-67
2021/09/16 10:02:45;;;;;;;3.95;1.50;;;34.20;29.60;;;;;;5031937;28;20435;-67
2021/09/16 10:05:28;;;;;;;4.22;1.23;;;34.20;29.20;;;;;;5031964;28;20109;-69
2021/09/16 10:07:56;;;;;;;3.63;1.40;;;34.10;29.10;;;;;;5031921;28;20029;-67
2021/09/16 10:10:23;;;;;;;2.17;1.20;;;34.10;29.70;;;;;;5031710;28;20105;-68
2021/09/16 10:12:52;;;;;;;2.63;1.30;;;34.10;29.90;;;;;;5031740;28;20034;-68
2021/09/16 10:15:19;;;;;;;2.70;1.30;;;34.20;29.80;;;;;;5031469;28;20124;-69
2021/09/16 10:17:46;;;;;;;3.42;1.33;;;34.20;29.50;;;;;;5031608;28;20017;-68
2021/09/16 10:20:21;;;;;;;2.65;1.00;;;34.20;29.50;;;;;;5031314;28;20489;-69
2021/09/16 10:22:49;;;;;;;2.60;1.10;;;34.40;29.40;;;;;;5031740;28;20353;-68
2021/09/16 10:25:18;;;;;;;2.15;1.00;;;34.60;29.40;;;;;;5031904;28;20472;-67
2021/09/16 10:27:55;;;;;;;2.50;1.00;;;34.70;29.30;;;;;;5031546;28;20031;-68
2021/09/16 10:30:23;;;;;;;1.55;0.75;;;34.70;28.90;;;;;;5031874;28;20026;-67
2021/09/16 10:32:58;;;;;;;2.38;1.08;;;34.60;28.50;;;;;;5031146;28;20089;-69
2021/09/16 10:35:23;;;;;;;1.98;0.90;;;34.60;28.90;;;;;;5030940;28;20029;-69
2021/09/16 10:37:53;;;;;;;2.35;0.90;;;34.70;28.90;;;;;;5031011;28;20351;-68
2021/09/16 10:40:20;;;;;;;3.83;1.20;;;34.90;29.10;;;;;;5030794;28;20028;-68
2021/09/16 10:42:58;;;;;;;2.83;1.50;;;35.30;29.00;;;;;;5031138;28;20104;-69
2021/09/16 10:45:42;;;;;;;2.42;1.20;;;35.50;28.30;;;;;;5031468;28;20026;-67
2021/09/16 10:48:13;;;;;;;2.35;1.23;;;35.40;28.00;;;;;;5031491;28;20032;-68
2021/09/16 10:50:43;;;;;;;3.20;1.20;;;35.50;28.30;;;;;;5031285;28;20029;-68
2021/09/16 10:53:37;;;;;;;3.55;1.50;;;35.40;28.30;;;;;;5031186;28;20037;-69
2021/09/16 10:56:04;;;;;;;3.33;1.20;;;35.50;27.70;;;;;;5030801;28;20035;-69
2021/09/16 10:58:30;;;;;;;2.83;1.30;;;35.30;28.40;;;;;;5030828;28;20022;-68
2021/09/16 11:00:56;;;;;;;3.13;1.52;;;35.50;27.90;;;;;;5031144;28;20029;-69
2021/09/16 11:03:22;;;;;;;4.75;1.90;;;35.20;27.90;;;;;;5031160;28;20030;-69
2021/09/16 11:05:53;;;;;;;3.80;1.65;;;35.10;27.70;;;;;;5030742;28;20037;-68
2021/09/16 11:08:21;;;;;;;3.17;1.45;;;34.90;28.00;;;;;;5030680;28;20026;-69
2021/09/16 11:10:49;;;;;;;2.88;1.38;;;34.90;28.10;;;;;;5030985;28;20025;-68
2021/09/16 11:13:39;;;;;;;3.92;1.40;;;35.10;28.50;;;;;;5031046;28;20029;-69
2021/09/16 11:16:06;;;;;;;2.38;1.20;;;35.60;28.10;;;;;;5031036;28;20103;-68
2021/09/16 11:18:32;;;;;;;3.85;1.33;;;36.10;28.60;;;;;;5031014;28;20465;-68
2021/09/16 11:21:04;;;;;;;4.32;1.90;;;36.40;28.40;;;;;;5030838;28;20056;-68
2021/09/16 11:23:56;;;;;;;4.57;1.90;;;36.60;27.90;;;;;;5030838;28;20017;-69
2021/09/16 11:26:23;;;;;;;5.68;1.70;;;36.70;27.40;;;;;;5029776;28;20060;-68
2021/09/16 11:29:08;;;;;;;4.38;1.80;;;36.30;27.80;;;;;;5030779;28;20031;-68
2021/09/16 11:31:34;;;;;;;3.72;1.60;;;36.30;27.80;;;;;;5030901;28;20471;-68
2021/09/16 11:34:15;;;;;;;4.03;2.00;;;36.30;28.00;;;;;;5034132;28;20032;-67
2021/09/16 11:37:04;;;;;;;3.50;1.70;;;36.50;27.90;;;;;;5034443;28;20108;-67
2021/09/16 11:39:30;;;;;;;3.60;1.70;;;36.90;27.80;;;;;;5034412;28;20022;-67
2021/09/16 11:42:18;;;;;;;3.40;1.77;;;37.10;27.90;;;;;;5034537;28;20024;-68
2021/09/16 11:45:00;;;;;;;3.42;1.60;;;37.30;27.50;;;;;;5034223;28;20104;-68
2021/09/16 11:47:27;;;;;;;4.63;1.60;;;37.50;27.40;;;;;;5034507;28;20025;-68
2021/09/16 11:49:53;;;;;;;2.65;1.38;;;37.70;27.90;;;;;;5034439;28;20044;-69
2021/09/16 11:52:19;;;;;;;3.75;1.80;;;38.00;27.90;;;;;;5034313;28;20045;-68
2021/09/16 11:55:06;;;;;;;4.25;2.40;;;38.20;27.80;;;;;;5034336;28;20400;-68
2021/09/16 11:57:56;;;;;;;4.68;2.50;;;38.20;27.20;;;;;;5034343;28;20022;-66
2021/09/16 12:00:24;;;;;;;5.05;2.40;;;37.90;27.10;;;;;;5034345;28;20438;-67
2021/09/16 12:02:50;;;;;;;5.50;2.83;;;37.70;27.50;;;;;;5034173;28;20396;-68
2021/09/16 12:05:35;;;;;;;3.95;2.22;;;37.70;27.40;;;;;;5033980;28;20035;-68
2021/09/16 12:08:03;;;;;;;5.05;2.40;;;37.70;27.30;;;;;;5034025;28;20025;-68
2021/09/16 12:11:03;;;;;;;4.30;2.20;;;37.80;27.30;;;;;;5034141;28;20079;-67
2021/09/16 12:13:32;;;;;;;5.00;2.90;;;37.60;27.10;;;;;;5033528;28;20124;-68
2021/09/16 12:16:12;;;;;;;5.68;2.70;;;37.40;27.00;;;;;;5033853;28;20026;-69
2021/09/16 12:18:45;;;;;;;4.77;2.60;;;37.20;27.50;;;;;;5034270;28;20025;-68
2021/09/16 12:21:21;;;;;;;4.50;2.25;;;36.90;27.10;;;;;;5034006;28;20262;-68
2021/09/16 12:23:50;;;;;;;5.43;1.98;;;36.80;27.10;;;;;;5034068;28;20025;-69
2021/09/16 12:26:26;;;;;;;4.57;2.38;;;36.90;27.30;;;;;;5034014;28;20121;-68
2021/09/16 12:29:02;;;;;;;6.47;2.70;;;37.00;27.00;;;;;;5033916;28;20061;-67
2021/09/16 12:31:31;;;;;;;4.68;2.60;;;37.00;27.00;;;;;;5033801;28;20361;-66
2021/09/16 12:34:01;;;;;;;6.50;2.25;;;37.00;27.20;;;;;;5033771;28;20032;-68
2021/09/16 12:36:28;;;;;;;4.10;1.83;;;37.10;27.10;;;;;;5033748;28;20028;-68
2021/09/16 12:39:01;;;;;;;3.95;1.85;;;37.10;27.20;;;;;;5033686;28;20030;-67
2021/09/16 12:41:37;;;;;;;2.70;1.40;;;37.30;27.20;;;;;;5033652;28;20029;-68
2021/09/16 12:44:09;;;;;;;2.80;1.27;;;37.40;27.20;;;;;;5032124;28;20088;-67